LiveATC.Net - Listen to live air traffic control over the Internet!


ICAO: LFMD  IATA: CEQ   Airport: Mandelieu Airport
City: Cannes
Country: France   Continent: Europe
LFMD METAR Weather: LFMD 191100Z AUTO 12010KT 050V180 CAVOK 21/04 Q1027 TEMPO 09020G30KT
LFMD Flight Activity (FlightAware)

LFMD Ground/Tower
Feed Status: UP   Listeners: 2
Listen in your browser - HTML5 player (in browser, HTML5)
Click here to listen with your own player (launches your MP3 player)
LFMD Ground/Tower Audio Archives
FacilityFrequency
Cannes Ground121.800
Cannes Tower118.625

NOTICE

Unauthorized use prohibited. See LiveATC.net Terms of Service


Find LiveATC Audio Streams


Airport/ARTCC Code

Frequency Search
(e.g., 124.400, 128.75)
Site-wide search
 


Browse LiveATC Feeds
Top 50 LiveATC Feeds
LiveATC Feed Map
Bad Weather Areas

LiveATC FAQ
Offer LiveATC feed
Contact LiveATC.net
Press Inquiries

LiveATC on iPhone
LiveATC on Android

Windows Phone
Windows 8/10

LiveATC Mobile
(Mobile browser)

ATC Audio Archives
Interesting Recordings

LiveATC Forums


Home Page
About LiveATC.net
Make a Donation
Terms of Use
Privacy Policy

Canadian Air Freqs

AIRMETs/SIGMETs

FAA Airport Status
Nat'l Airspace Status
Arrival Demand Charts


Server Software By:
Icecast.org
Liquidsoap